Time;durP1;ratioP1;P1;durP2;ratioP2;P2;SDS_P1;SDS_P2;PMS_P1;PMS_P2;Temp;Humidity;BMP_temperature;BMP_pressure;BME280_temperature;BME280_humidity;BME280_pressure;Samples;Min_cycle;Max_cycle;Signal;HPM_P1;HPM_P2
2023/06/07 00:01:29;;;;;;;0.50;0.40;;;17.60;99.90;;;;;;5006859;28;20442;-81
2023/06/07 00:03:57;;;;;;;0.50;0.40;;;17.60;99.90;;;;;;5006292;28;20578;-80
2023/06/07 00:06:24;;;;;;;0.50;0.40;;;17.60;99.90;;;;;;5003206;28;20828;-81
2023/06/07 00:08:52;;;;;;;0.50;0.40;;;17.50;99.90;;;;;;5002874;28;20864;-80
2023/06/07 00:11:21;;;;;;;0.50;0.40;;;17.60;99.90;;;;;;5005975;28;20933;-81
2023/06/07 00:13:47;;;;;;;0.50;0.30;;;17.60;99.90;;;;;;5006844;28;20477;-80
2023/06/07 00:16:14;;;;;;;0.50;0.37;;;17.50;99.90;;;;;;5007148;28;20463;-81
2023/06/07 00:18:41;;;;;;;0.50;0.40;;;17.50;99.90;;;;;;5006381;28;20446;-81
2023/06/07 00:21:08;;;;;;;0.50;0.40;;;17.50;99.90;;;;;;5008087;28;20443;-80
2023/06/07 00:23:35;;;;;;;0.50;0.30;;;17.40;99.90;;;;;;5009362;28;20965;-81
2023/06/07 00:26:03;;;;;;;0.90;0.60;;;17.40;99.90;;;;;;5008278;28;20972;-80
2023/06/07 00:28:30;;;;;;;0.50;0.40;;;17.40;99.90;;;;;;5006214;28;20473;-81
2023/06/07 00:30:57;;;;;;;0.50;0.40;;;17.50;99.90;;;;;;5006228;28;20443;-80
2023/06/07 00:33:24;;;;;;;0.50;0.40;;;17.50;99.90;;;;;;5009608;28;20458;-81
2023/06/07 00:35:50;;;;;;;0.50;0.40;;;17.50;99.90;;;;;;5008932;28;20453;-81
2023/06/07 00:38:18;;;;;;;0.50;0.50;;;17.60;99.90;;;;;;5005664;28;20443;-80
2023/06/07 00:40:45;;;;;;;0.50;0.40;;;17.60;99.90;;;;;;5006067;28;20988;-81
2023/06/07 00:43:13;;;;;;;0.50;0.40;;;17.60;99.90;;;;;;5007813;28;20481;-81
2023/06/07 00:45:39;;;;;;;0.50;0.30;;;17.60;99.90;;;;;;5009412;28;20435;-80
2023/06/07 00:48:07;;;;;;;1.33;1.23;;;17.70;99.90;;;;;;5007510;28;20902;-81
2023/06/07 00:50:34;;;;;;;0.50;0.37;;;17.70;99.90;;;;;;5005243;28;20479;-80
2023/06/07 00:53:02;;;;;;;0.50;0.30;;;17.70;99.90;;;;;;5006340;28;20464;-81
2023/06/07 00:55:29;;;;;;;0.50;0.40;;;17.70;99.90;;;;;;5012578;28;20543;-81
2023/06/07 00:57:56;;;;;;;0.50;0.40;;;17.70;99.90;;;;;;5003885;28;20954;-80
2023/06/07 01:00:25;;;;;;;0.50;0.30;;;17.80;99.90;;;;;;4996648;28;20447;-81
2023/06/07 01:02:55;;;;;;;0.90;0.90;;;17.80;99.90;;;;;;5005381;28;20953;-80
2023/06/07 01:05:22;;;;;;;0.50;0.40;;;17.80;99.90;;;;;;5008541;28;20442;-81
2023/06/07 01:07:51;;;;;;;0.50;0.30;;;17.90;99.90;;;;;;5009078;28;20569;-80
2023/06/07 01:10:18;;;;;;;0.50;0.40;;;17.90;99.90;;;;;;5005755;28;20448;-81
2023/06/07 01:12:47;;;;;;;0.50;0.33;;;17.90;99.90;;;;;;5005512;28;20932;-81
2023/06/07 01:15:15;;;;;;;0.50;0.30;;;17.90;99.90;;;;;;5006798;28;20448;-80
2023/06/07 01:17:44;;;;;;;0.50;0.40;;;17.90;99.90;;;;;;5008459;28;20451;-81
2023/06/07 01:20:13;;;;;;;0.50;0.30;;;17.90;99.90;;;;;;5006506;28;20449;-81
2023/06/07 01:22:43;;;;;;;0.50;0.30;;;17.90;99.90;;;;;;5005483;28;20531;-80
2023/06/07 01:25:12;;;;;;;0.50;0.40;;;17.90;99.90;;;;;;5005607;28;20498;-81
2023/06/07 01:27:41;;;;;;;0.50;0.30;;;17.90;99.90;;;;;;5003114;28;20472;-81
2023/06/07 01:30:11;;;;;;;0.50;0.40;;;17.90;99.90;;;;;;5004218;28;20443;-81
2023/06/07 01:32:40;;;;;;;0.50;0.40;;;17.90;99.90;;;;;;5004883;28;20477;-81
2023/06/07 01:35:11;;;;;;;0.50;0.40;;;17.90;99.90;;;;;;5005500;28;20455;-81
2023/06/07 01:37:39;;;;;;;0.50;0.40;;;17.90;99.90;;;;;;5007733;28;20459;-81
2023/06/07 01:40:07;;;;;;;0.50;0.40;;;17.90;99.90;;;;;;5006446;28;20443;-81
2023/06/07 01:42:37;;;;;;;0.80;0.80;;;17.90;99.90;;;;;;5004629;28;20490;-81
2023/06/07 01:45:05;;;;;;;0.50;0.30;;;17.90;99.90;;;;;;5004565;28;20454;-81
2023/06/07 01:47:33;;;;;;;0.50;0.40;;;17.90;99.90;;;;;;5007264;28;20478;-81
2023/06/07 01:49:59;;;;;;;0.50;0.30;;;17.90;99.90;;;;;;5007992;28;20966;-80
2023/06/07 01:52:27;;;;;;;0.50;0.40;;;17.90;99.90;;;;;;5007787;28;20439;-81
2023/06/07 01:54:54;;;;;;;0.50;0.40;;;17.90;99.90;;;;;;5007891;28;20502;-81
2023/06/07 01:57:27;;;;;;;0.50;0.30;;;17.90;99.90;;;;;;5004627;28;20440;-80
2023/06/07 02:00:06;;;;;;;0.50;0.40;;;17.90;99.90;;;;;;5004191;28;20947;-81
2023/06/07 02:02:36;;;;;;;0.50;0.30;;;17.90;99.90;;;;;;4997215;28;20456;-80
2023/06/07 02:05:08;;;;;;;0.50;0.30;;;17.90;99.90;;;;;;5003766;28;20448;-81
2023/06/07 02:07:43;;;;;;;0.50;0.30;;;17.90;99.90;;;;;;5007426;28;20501;-81
2023/06/07 02:10:10;;;;;;;0.50;0.30;;;17.90;99.90;;;;;;5007251;28;20469;-81
2023/06/07 02:12:38;;;;;;;0.50;0.40;;;17.90;99.90;;;;;;5007128;28;20819;-81
2023/06/07 02:15:07;;;;;;;0.50;0.30;;;17.90;99.90;;;;;;5006246;28;20956;-81
2023/06/07 02:17:34;;;;;;;0.50;0.30;;;17.90;99.90;;;;;;5003604;28;20436;-81
2023/06/07 02:20:02;;;;;;;0.50;0.40;;;17.90;99.90;;;;;;5003979;28;20448;-81
2023/06/07 02:22:29;;;;;;;0.50;0.40;;;17.80;99.90;;;;;;4995639;28;20864;-81
2023/06/07 02:24:56;;;;;;;0.50;0.30;;;17.80;99.90;;;;;;5003578;28;20515;-81
2023/06/07 02:27:23;;;;;;;0.50;0.40;;;17.80;99.90;;;;;;5006521;28;20931;-81
2023/06/07 02:29:50;;;;;;;0.50;0.50;;;17.80;99.90;;;;;;5006869;28;20447;-81
2023/06/07 02:32:18;;;;;;;1.07;0.93;;;17.80;99.90;;;;;;5005032;28;20447;-80
2023/06/07 02:34:47;;;;;;;0.50;0.40;;;17.80;99.90;;;;;;5003832;28;20476;-81
2023/06/07 02:37:15;;;;;;;0.50;0.30;;;17.80;99.90;;;;;;5004211;28;20452;-81
2023/06/07 02:39:42;;;;;;;0.50;0.30;;;17.80;99.90;;;;;;5006404;28;20478;-81
2023/06/07 02:42:09;;;;;;;0.50;0.40;;;17.80;99.90;;;;;;5010699;28;20451;-80
2023/06/07 02:44:36;;;;;;;0.50;0.40;;;17.80;99.90;;;;;;5012870;28;20468;-80
2023/06/07 02:47:03;;;;;;;0.50;0.30;;;17.70;99.90;;;;;;5013023;28;20542;-78
2023/06/07 02:49:31;;;;;;;0.50;0.40;;;17.70;99.90;;;;;;5004369;28;20855;-80
2023/06/07 02:51:58;;;;;;;0.50;0.30;;;17.60;99.90;;;;;;5012205;28;20439;-79
2023/06/07 02:54:24;;;;;;;0.50;0.30;;;17.70;99.90;;;;;;5014623;28;20470;-79
2023/06/07 02:56:51;;;;;;;0.50;0.30;;;17.60;99.90;;;;;;5015815;28;20435;-80
2023/06/07 02:59:19;;;;;;;0.50;0.40;;;17.60;99.90;;;;;;5013207;28;20470;-79
2023/06/07 03:01:46;;;;;;;0.50;0.40;;;17.60;99.90;;;;;;5011971;28;20503;-79
2023/06/07 03:04:13;;;;;;;0.50;0.50;;;17.60;99.90;;;;;;5013468;28;20472;-79
2023/06/07 03:06:41;;;;;;;0.50;0.33;;;17.60;99.90;;;;;;5014060;28;20926;-81
2023/06/07 03:09:08;;;;;;;0.50;0.33;;;17.50;99.90;;;;;;5014233;28;21025;-79
2023/06/07 03:11:36;;;;;;;0.50;0.40;;;17.50;99.90;;;;;;5007948;28;20939;-79
2023/06/07 03:14:02;;;;;;;0.50;0.40;;;17.40;99.90;;;;;;5006985;28;20471;-79
2023/06/07 03:16:29;;;;;;;0.50;0.30;;;17.40;99.90;;;;;;5010386;28;20455;-80
2023/06/07 03:18:56;;;;;;;0.50;0.40;;;17.40;99.90;;;;;;5013922;28;20503;-79
2023/06/07 03:21:23;;;;;;;0.50;0.30;;;17.40;99.90;;;;;;5014675;28;20443;-80
2023/06/07 03:23:53;;;;;;;0.50;0.40;;;17.30;99.90;;;;;;5012151;28;20471;-80
2023/06/07 03:26:20;;;;;;;6.40;0.57;;;17.30;99.90;;;;;;5011979;28;20448;-81
2023/06/07 03:28:48;;;;;;;0.50;0.40;;;17.30;99.90;;;;;;5013504;28;20475;-79
2023/06/07 03:31:15;;;;;;;0.50;0.40;;;17.30;99.90;;;;;;5013463;28;20462;-77
2023/06/07 03:33:41;;;;;;;0.50;0.40;;;17.30;99.90;;;;;;5011562;28;20559;-78
2023/06/07 03:36:09;;;;;;;0.50;0.40;;;17.30;99.90;;;;;;5012529;28;20443;-79
2023/06/07 03:38:36;;;;;;;0.50;0.40;;;17.30;99.90;;;;;;5015431;28;20908;-80
2023/06/07 03:41:04;;;;;;;0.50;0.40;;;17.30;99.90;;;;;;5002899;28;20445;-81
2023/06/07 03:43:31;;;;;;;0.50;0.30;;;17.30;99.90;;;;;;5002266;28;20455;-81
2023/06/07 03:45:58;;;;;;;0.50;0.40;;;17.20;99.90;;;;;;4994121;28;20444;-80
2023/06/07 03:48:24;;;;;;;0.63;0.53;;;17.20;99.90;;;;;;5006315;28;20574;-81
2023/06/07 03:50:51;;;;;;;0.50;0.30;;;17.20;99.90;;;;;;5010286;28;20445;-80
2023/06/07 03:53:18;;;;;;;0.50;0.40;;;17.20;99.90;;;;;;5009823;28;20561;-81
2023/06/07 03:55:46;;;;;;;3.80;1.90;;;17.10;99.90;;;;;;5012609;28;20452;-81
2023/06/07 03:58:18;;;;;;;0.50;0.30;;;17.10;99.90;;;;;;5006673;28;20490;-81
2023/06/07 04:00:45;;;;;;;0.50;0.43;;;17.10;99.90;;;;;;5004740;28;20990;-81
2023/06/07 04:03:12;;;;;;;0.50;0.40;;;17.20;99.90;;;;;;5006045;28;20463;-80
2023/06/07 04:05:39;;;;;;;0.50;0.40;;;17.10;99.90;;;;;;5009243;28;20442;-81
2023/06/07 04:08:06;;;;;;;0.50;0.40;;;17.10;99.90;;;;;;5008917;28;20533;-81
2023/06/07 04:10:33;;;;;;;0.50;0.30;;;17.10;99.90;;;;;;5001204;28;20439;-79
2023/06/07 04:13:00;;;;;;;0.67;0.67;;;17.20;99.90;;;;;;5009087;28;20466;-81
2023/06/07 04:15:28;;;;;;;0.50;0.40;;;17.10;99.90;;;;;;5006908;28;20453;-81
2023/06/07 04:17:55;;;;;;;0.50;0.40;;;17.10;99.90;;;;;;5006048;28;20534;-80
2023/06/07 04:20:22;;;;;;;0.50;0.40;;;17.10;99.90;;;;;;5007228;28;20451;-81
2023/06/07 04:22:49;;;;;;;1.87;1.70;;;17.10;99.90;;;;;;5011175;28;20501;-78
2023/06/07 04:25:16;;;;;;;1.10;1.10;;;17.10;99.90;;;;;;5008666;28;20830;-81
2023/06/07 04:27:45;;;;;;;0.50;0.30;;;17.10;99.90;;;;;;5005830;28;20451;-81
2023/06/07 04:30:12;;;;;;;0.50;0.40;;;17.00;99.90;;;;;;5005330;28;20481;-80
2023/06/07 04:32:40;;;;;;;0.50;0.30;;;17.00;99.90;;;;;;5005828;28;20490;-80
2023/06/07 04:35:07;;;;;;;0.60;0.53;;;17.00;99.90;;;;;;5052088;22;20484;-82
2023/06/07 04:37:34;;;;;;;0.50;0.40;;;17.00;99.90;;;;;;4986266;28;20436;-81
2023/06/07 04:40:00;;;;;;;0.50;0.40;;;16.90;99.90;;;;;;4996431;28;20458;-78
2023/06/07 04:42:28;;;;;;;0.50;0.40;;;16.90;99.90;;;;;;4995305;28;20442;-80
2023/06/07 04:44:55;;;;;;;0.50;0.30;;;16.80;99.90;;;;;;4995641;28;20464;-81
2023/06/07 04:47:24;;;;;;;0.50;0.40;;;16.80;99.90;;;;;;5000653;28;20451;-82
2023/06/07 04:49:53;;;;;;;0.60;0.47;;;16.70;99.90;;;;;;4992425;28;20479;-81
2023/06/07 04:52:20;;;;;;;1.53;1.43;;;16.60;99.90;;;;;;5000752;28;20443;-82
2023/06/07 04:54:47;;;;;;;0.50;0.40;;;16.50;99.90;;;;;;5007259;28;20436;-81
2023/06/07 04:57:14;;;;;;;4.40;1.27;;;16.50;99.90;;;;;;5006374;28;20473;-81
2023/06/07 04:59:44;;;;;;;0.50;0.40;;;16.50;99.90;;;;;;4995950;28;20460;-83
2023/06/07 05:02:11;;;;;;;0.53;0.50;;;16.50;99.90;;;;;;4992684;28;20440;-84
2023/06/07 05:04:38;;;;;;;0.50;0.40;;;16.50;99.90;;;;;;4992977;28;20455;-83
2023/06/07 05:07:07;;;;;;;0.50;0.40;;;16.50;99.90;;;;;;4994846;28;20445;-82
2023/06/07 05:09:34;;;;;;;0.50;0.40;;;16.40;99.90;;;;;;4996721;28;20474;-82
2023/06/07 05:12:01;;;;;;;0.50;0.40;;;16.40;99.90;;;;;;4996542;28;20532;-84
2023/06/07 05:14:28;;;;;;;0.50;0.40;;;16.30;99.90;;;;;;5000181;28;20440;-83
2023/06/07 05:16:54;;;;;;;1.17;1.07;;;16.30;99.90;;;;;;5008797;28;20468;-82
2023/06/07 05:19:21;;;;;;;0.50;0.40;;;16.30;99.90;;;;;;4996886;28;20451;-83
2023/06/07 05:21:48;;;;;;;0.50;0.40;;;16.30;99.90;;;;;;5005555;28;20444;-80
2023/06/07 05:24:16;;;;;;;6.43;2.20;;;16.30;99.90;;;;;;4995923;28;20508;-80
2023/06/07 05:26:43;;;;;;;0.50;0.40;;;16.30;99.90;;;;;;5003113;28;20531;-82
2023/06/07 05:29:09;;;;;;;0.50;0.40;;;16.40;99.90;;;;;;5002443;28;20480;-81
2023/06/07 05:31:36;;;;;;;0.50;0.40;;;16.40;99.90;;;;;;4996240;28;20443;-83
2023/06/07 05:34:03;;;;;;;0.50;0.40;;;16.40;99.90;;;;;;4992735;28;20824;-81
2023/06/07 05:36:34;;;;;;;0.50;0.40;;;16.40;99.90;;;;;;4999524;28;20479;-82
2023/06/07 05:39:01;;;;;;;2.10;1.10;;;16.30;99.90;;;;;;5000367;28;20436;-80
2023/06/07 05:41:29;;;;;;;0.50;0.40;;;16.40;99.90;;;;;;4994441;28;20530;-85
2023/06/07 05:43:56;;;;;;;0.50;0.40;;;16.40;99.90;;;;;;4993132;28;20456;-85
2023/06/07 05:46:23;;;;;;;1.67;1.57;;;16.40;99.90;;;;;;5003104;28;20468;-80
2023/06/07 05:48:50;;;;;;;0.50;0.40;;;16.50;99.90;;;;;;4991099;28;20476;-81
2023/06/07 05:51:17;;;;;;;0.50;0.40;;;16.50;99.90;;;;;;4995454;28;20448;-79
2023/06/07 05:53:44;;;;;;;1.17;1.10;;;16.50;99.90;;;;;;4995352;28;20444;-80
2023/06/07 05:56:15;;;;;;;0.50;0.50;;;16.50;99.90;;;;;;5000659;28;20463;-83
2023/06/07 05:58:44;;;;;;;0.60;0.60;;;16.50;99.90;;;;;;4994397;28;20445;-83
2023/06/07 06:01:12;;;;;;;0.50;0.30;;;16.70;99.90;;;;;;4995520;28;20439;-84
2023/06/07 06:03:39;;;;;;;0.50;0.30;;;16.70;99.90;;;;;;4989683;28;20535;-83
2023/06/07 06:06:14;;;;;;;0.50;0.40;;;16.70;99.90;;;;;;4989541;28;20467;-85
2023/06/07 06:08:40;;;;;;;0.50;0.33;;;16.80;99.90;;;;;;4989198;28;20503;-83
2023/06/07 06:11:08;;;;;;;0.50;0.30;;;16.90;99.90;;;;;;4989443;28;20455;-83
2023/06/07 06:13:34;;;;;;;0.50;0.40;;;16.90;99.90;;;;;;4991821;28;20441;-85
2023/06/07 06:16:03;;;;;;;0.50;0.40;;;17.00;99.90;;;;;;4991443;28;20475;-85
2023/06/07 06:18:29;;;;;;;0.50;0.40;;;17.00;99.90;;;;;;4988650;28;20447;-85
2023/06/07 06:20:57;;;;;;;0.50;0.40;;;16.90;99.90;;;;;;4988409;28;20479;-84
2023/06/07 06:23:24;;;;;;;0.50;0.40;;;16.90;99.90;;;;;;4989962;28;20506;-84
2023/06/07 06:25:51;;;;;;;0.50;0.30;;;16.90;99.90;;;;;;4990689;28;20464;-84
2023/06/07 06:28:18;;;;;;;0.50;0.40;;;16.80;99.90;;;;;;4991121;28;20634;-83
2023/06/07 06:30:45;;;;;;;0.60;0.40;;;16.80;99.90;;;;;;4991235;28;20511;-83
2023/06/07 06:33:13;;;;;;;0.50;0.40;;;16.90;99.90;;;;;;4992319;28;20828;-83
2023/06/07 06:35:40;;;;;;;0.50;0.40;;;16.90;99.90;;;;;;4989857;28;20474;-84
2023/06/07 06:38:07;;;;;;;0.70;0.70;;;16.90;99.90;;;;;;4993162;28;20511;-84
2023/06/07 06:40:34;;;;;;;0.50;0.37;;;16.90;99.90;;;;;;4985497;28;20449;-84
2023/06/07 06:43:01;;;;;;;0.50;0.40;;;17.00;99.90;;;;;;4993555;28;20448;-85
2023/06/07 06:45:28;;;;;;;0.50;0.40;;;17.10;99.90;;;;;;4993053;28;20471;-84
2023/06/07 06:47:55;;;;;;;0.50;0.50;;;17.10;99.90;;;;;;4987435;28;20479;-84
2023/06/07 06:50:23;;;;;;;0.50;0.40;;;17.10;99.90;;;;;;4992509;28;20507;-84
2023/06/07 06:52:50;;;;;;;0.50;0.40;;;17.00;99.90;;;;;;4997507;28;20854;-85
2023/06/07 06:55:17;;;;;;;0.50;0.30;;;17.00;99.90;;;;;;4988870;28;20471;-83
2023/06/07 06:57:44;;;;;;;0.50;0.40;;;17.00;99.90;;;;;;4986265;28;20441;-85
2023/06/07 07:00:12;;;;;;;0.50;0.40;;;17.10;99.90;;;;;;4994542;28;20459;-84
2023/06/07 07:02:39;;;;;;;0.50;0.50;;;17.10;99.90;;;;;;4996084;28;20443;-84
2023/06/07 07:05:07;;;;;;;13.43;3.10;;;17.00;99.90;;;;;;4997449;28;20460;-84
2023/06/07 07:07:35;;;;;;;0.50;0.33;;;17.00;99.90;;;;;;4994820;28;20450;-84
2023/06/07 07:10:02;;;;;;;0.50;0.30;;;16.90;99.90;;;;;;4994111;28;20481;-83
2023/06/07 07:12:29;;;;;;;1.17;1.07;;;16.90;99.90;;;;;;4986776;28;20519;-83
2023/06/07 07:14:56;;;;;;;0.50;0.40;;;16.80;99.90;;;;;;4997167;28;20539;-83
2023/06/07 07:17:22;;;;;;;0.50;0.40;;;16.50;99.90;;;;;;4996169;28;20439;-83
2023/06/07 07:19:49;;;;;;;0.50;0.40;;;16.40;99.90;;;;;;4993739;28;20447;-83
2023/06/07 07:22:16;;;;;;;0.60;0.50;;;16.40;99.90;;;;;;4993906;28;20451;-84
2023/06/07 07:24:44;;;;;;;0.50;0.40;;;16.50;99.90;;;;;;4996269;28;20442;-84
2023/06/07 07:27:11;;;;;;;0.50;0.40;;;16.50;99.90;;;;;;4996785;28;20440;-84
2023/06/07 07:29:38;;;;;;;0.50;0.40;;;16.50;99.90;;;;;;4994098;28;20478;-84
2023/06/07 07:32:05;;;;;;;0.50;0.40;;;16.60;99.90;;;;;;4985835;28;20508;-84
2023/06/07 07:34:32;;;;;;;0.50;0.40;;;16.70;99.90;;;;;;4994725;28;20449;-84
2023/06/07 07:37:02;;;;;;;0.83;0.70;;;16.70;99.90;;;;;;4996409;28;20459;-83
2023/06/07 07:39:28;;;;;;;1.27;1.27;;;16.60;99.90;;;;;;4998696;28;20436;-84
2023/06/07 07:41:57;;;;;;;0.50;0.40;;;16.70;99.90;;;;;;5003317;28;20515;-84
2023/06/07 07:44:23;;;;;;;0.50;0.40;;;16.60;99.90;;;;;;4996384;28;20436;-78
2023/06/07 07:46:50;;;;;;;0.50;0.40;;;16.60;99.90;;;;;;4995685;28;20543;-80
2023/06/07 07:49:17;;;;;;;0.50;0.40;;;16.50;99.90;;;;;;4996181;28;20482;-83
2023/06/07 07:51:44;;;;;;;1.47;1.13;;;16.40;99.90;;;;;;4992830;28;20451;-79
2023/06/07 07:54:11;;;;;;;1.07;1.03;;;16.30;99.90;;;;;;4991857;28;20436;-79
2023/06/07 07:56:38;;;;;;;0.50;0.40;;;16.30;99.90;;;;;;4996672;28;20465;-80
2023/06/07 07:59:06;;;;;;;0.70;0.70;;;16.20;99.90;;;;;;4997579;28;20503;-81
2023/06/07 08:01:34;;;;;;;0.60;0.60;;;16.00;99.90;;;;;;4994316;28;20803;-81
2023/06/07 08:04:01;;;;;;;0.50;0.40;;;15.90;99.90;;;;;;4992948;28;20444;-83
2023/06/07 08:06:27;;;;;;;0.50;0.40;;;15.90;99.90;;;;;;4992677;28;20495;-83
2023/06/07 08:08:54;;;;;;;0.50;0.50;;;15.80;99.90;;;;;;4996151;28;20443;-84
2023/06/07 08:11:21;;;;;;;0.50;0.40;;;15.70;99.90;;;;;;4995440;28;20831;-84
2023/06/07 08:13:48;;;;;;;0.50;0.40;;;15.60;99.90;;;;;;4983212;28;20464;-84
2023/06/07 08:16:17;;;;;;;0.50;0.40;;;15.60;99.90;;;;;;4989789;28;20523;-85
2023/06/07 08:18:49;;;;;;;0.50;0.40;;;15.50;99.90;;;;;;4990236;28;21126;-86
2023/06/07 08:21:15;;;;;;;0.50;0.40;;;15.40;99.90;;;;;;4996488;28;20447;-84
2023/06/07 08:23:44;;;;;;;0.50;0.40;;;15.30;99.90;;;;;;4995045;28;20525;-86
2023/06/07 08:26:11;;;;;;;0.93;0.93;;;15.30;99.90;;;;;;4997412;28;20471;-84
2023/06/07 08:28:38;;;;;;;3.00;1.13;;;15.40;99.90;;;;;;4985522;28;20528;-84
2023/06/07 08:31:05;;;;;;;0.70;0.70;;;15.30;99.90;;;;;;4988649;28;20482;-86
2023/06/07 08:33:33;;;;;;;0.87;0.87;;;15.20;99.90;;;;;;4986061;28;20518;-86
2023/06/07 08:36:00;;;;;;;0.50;0.40;;;15.30;99.90;;;;;;4995274;28;20471;-84
2023/06/07 08:38:26;;;;;;;0.50;0.40;;;15.30;99.90;;;;;;4989036;28;20468;-84
2023/06/07 08:40:55;;;;;;;0.60;0.40;;;15.40;99.90;;;;;;4989345;28;20519;-87
2023/06/07 08:43:22;;;;;;;0.50;0.40;;;15.40;99.90;;;;;;4997221;28;20466;-85
2023/06/07 08:45:50;;;;;;;1.97;1.87;;;15.40;99.90;;;;;;4993217;28;20492;-85
2023/06/07 08:48:18;;;;;;;0.50;0.40;;;15.30;99.90;;;;;;4992816;28;20447;-86
2023/06/07 08:50:50;;;;;;;0.50;0.50;;;15.30;99.90;;;;;;4999855;28;20456;-84
2023/06/07 08:53:25;;;;;;;0.50;0.40;;;15.30;99.90;;;;;;4992432;28;20451;-84
2023/06/07 08:55:52;;;;;;;0.97;0.73;;;15.30;99.90;;;;;;4984114;28;20475;-84
2023/06/07 08:58:20;;;;;;;0.50;0.40;;;15.20;99.90;;;;;;4993584;28;20459;-83
2023/06/07 09:00:47;;;;;;;0.50;0.40;;;15.20;99.90;;;;;;4994385;28;20447;-84
2023/06/07 09:03:14;;;;;;;0.50;0.40;;;15.10;99.90;;;;;;4993925;28;20444;-84
2023/06/07 09:05:41;;;;;;;0.50;0.40;;;15.20;99.90;;;;;;4992827;28;20467;-84
2023/06/07 09:08:09;;;;;;;0.50;0.40;;;15.20;99.90;;;;;;4996254;28;20965;-83
2023/06/07 09:10:36;;;;;;;0.50;0.40;;;15.30;99.90;;;;;;4992716;28;20571;-84
2023/06/07 09:13:02;;;;;;;0.50;0.40;;;15.30;99.90;;;;;;4992261;28;20539;-84
2023/06/07 09:15:31;;;;;;;0.50;0.40;;;15.30;99.90;;;;;;4992945;28;21010;-85
2023/06/07 09:17:59;;;;;;;0.50;0.40;;;15.40;99.90;;;;;;4998828;28;20447;-85
2023/06/07 09:20:27;;;;;;;0.50;0.40;;;15.40;99.90;;;;;;5003308;28;20536;-85
2023/06/07 09:22:59;;;;;;;0.50;0.40;;;15.50;99.90;;;;;;4985858;28;20510;-86
2023/06/07 09:25:28;;;;;;;2.97;2.87;;;15.50;99.90;;;;;;4991520;28;20476;-87
2023/06/07 09:27:55;;;;;;;0.50;0.40;;;15.50;99.90;;;;;;4995053;28;20455;-85
2023/06/07 09:30:23;;;;;;;1.20;1.13;;;15.60;99.90;;;;;;4995320;28;20506;-85
2023/06/07 09:32:49;;;;;;;0.60;0.40;;;15.80;99.90;;;;;;4993310;28;20508;-85
2023/06/07 09:35:18;;;;;;;0.50;0.30;;;15.80;99.90;;;;;;4990336;28;20562;-85
2023/06/07 09:37:47;;;;;;;0.50;0.40;;;15.80;99.90;;;;;;4995477;28;20454;-86
2023/06/07 09:40:15;;;;;;;3.50;3.30;;;15.90;99.90;;;;;;4995473;28;20897;-85
2023/06/07 09:42:44;;;;;;;1.20;1.10;;;15.80;99.90;;;;;;4996199;28;20458;-85
2023/06/07 09:45:15;;;;;;;0.80;0.77;;;15.70;99.90;;;;;;4997265;28;20473;-85
2023/06/07 09:47:43;;;;;;;0.50;0.40;;;15.70;99.90;;;;;;4994600;28;20459;-86
2023/06/07 09:50:11;;;;;;;0.50;0.40;;;15.70;99.90;;;;;;5005248;28;20471;-86
2023/06/07 09:52:38;;;;;;;0.50;0.40;;;15.70;99.90;;;;;;5001778;28;20443;-85
2023/06/07 09:55:07;;;;;;;0.50;0.40;;;15.80;99.90;;;;;;4999521;28;20459;-85
2023/06/07 09:57:35;;;;;;;0.60;0.50;;;16.00;99.90;;;;;;4995643;28;20456;-87
2023/06/07 10:00:10;;;;;;;0.50;0.40;;;16.00;99.90;;;;;;4991745;28;20493;-84
2023/06/07 10:02:37;;;;;;;0.60;0.50;;;16.10;99.90;;;;;;4993000;28;20475;-85
2023/06/07 10:05:04;;;;;;;0.50;0.40;;;16.30;99.90;;;;;;4996142;28;20831;-83
2023/06/07 10:07:35;;;;;;;2.77;2.67;;;16.50;99.90;;;;;;4995769;28;20436;-83
2023/06/07 10:10:03;;;;;;;0.67;0.67;;;16.70;99.90;;;;;;4995600;28;20575;-85
2023/06/07 10:12:35;;;;;;;0.50;0.40;;;17.00;99.90;;;;;;4995873;28;20515;-85
2023/06/07 10:15:07;;;;;;;3.30;3.10;;;17.30;99.90;;;;;;4992246;28;20475;-85
2023/06/07 10:17:45;;;;;;;0.50;0.40;;;17.50;99.90;;;;;;4991657;28;20458;-86
2023/06/07 10:20:16;;;;;;;0.50;0.50;;;17.70;99.90;;;;;;4991783;28;20476;-86
2023/06/07 10:22:44;;;;;;;0.50;0.37;;;17.80;99.90;;;;;;4993079;28;20947;-86
2023/06/07 10:25:16;;;;;;;0.60;0.50;;;17.80;99.90;;;;;;4997447;28;20491;-85
2023/06/07 10:27:51;;;;;;;0.50;0.30;;;17.80;99.90;;;;;;4999573;28;20855;-87
2023/06/07 10:30:22;;;;;;;0.50;0.40;;;17.80;99.90;;;;;;4997834;28;20475;-86
2023/06/07 10:32:52;;;;;;;0.77;0.77;;;17.90;99.90;;;;;;4991942;28;20501;-85
2023/06/07 10:35:20;;;;;;;0.50;0.30;;;18.00;99.90;;;;;;4989444;28;20539;-85
2023/06/07 10:37:50;;;;;;;2.30;1.10;;;18.10;99.90;;;;;;5072874;22;20493;-83
2023/06/07 10:40:17;;;;;;;0.50;0.30;;;18.00;99.90;;;;;;5036448;28;20941;-83
2023/06/07 10:42:46;;;;;;;1.07;0.80;;;18.00;99.90;;;;;;5037298;28;20445;-83
2023/06/07 10:45:17;;;;;;;5.27;4.83;;;18.00;99.90;;;;;;5037128;28;20504;-83
2023/06/07 10:47:47;;;;;;;0.50;0.40;;;17.90;99.90;;;;;;5036554;28;20489;-83
2023/06/07 10:50:47;;;;;;;0.97;0.60;;;17.80;99.90;;;;;;5037793;28;20478;-83
2023/06/07 10:53:14;;;;;;;0.50;0.40;;;17.80;99.90;;;;;;5027109;28;20472;-86
2023/06/07 10:55:41;;;;;;;0.50;0.30;;;17.90;99.90;;;;;;5037750;28;20441;-85
2023/06/07 10:58:26;;;;;;;0.53;0.40;;;18.10;99.90;;;;;;5038186;28;20473;-85
2023/06/07 11:00:54;;;;;;;0.50;0.30;;;18.40;99.90;;;;;;5037412;28;20508;-83
2023/06/07 11:03:41;;;;;;;0.50;0.40;;;18.40;99.90;;;;;;5037962;28;20509;-84
2023/06/07 11:06:09;;;;;;;0.50;0.40;;;18.70;99.90;;;;;;5030693;28;20450;-85
2023/06/07 11:08:40;;;;;;;0.50;0.40;;;18.80;99.90;;;;;;5037522;28;20549;-85
2023/06/07 11:11:50;;;;;;;0.70;0.70;;;19.00;99.90;;;;;;5037449;28;20482;-84
2023/06/07 11:14:17;;;;;;;0.50;0.30;;;19.20;99.90;;;;;;5037521;28;20806;-82
2023/06/07 11:16:44;;;;;;;0.60;0.60;;;19.20;99.90;;;;;;5037278;28;20470;-83
2023/06/07 11:19:18;;;;;;;0.50;0.30;;;19.30;99.90;;;;;;5037279;28;20446;-82
2023/06/07 11:22:10;;;;;;;0.50;0.40;;;19.40;99.90;;;;;;5037643;28;20964;-82
2023/06/07 11:24:37;;;;;;;0.50;0.40;;;19.70;99.90;;;;;;5043699;28;20446;-82
2023/06/07 11:27:11;;;;;;;0.50;0.30;;;19.90;99.90;;;;;;5046787;28;20519;-82
2023/06/07 11:29:39;;;;;;;0.50;0.30;;;20.00;99.90;;;;;;5044722;28;20438;-83
2023/06/07 11:32:09;;;;;;;0.50;0.30;;;20.30;99.90;;;;;;5042516;28;20478;-82
2023/06/07 11:34:39;;;;;;;0.50;0.30;;;20.60;99.90;;;;;;5037974;28;20506;-82
2023/06/07 11:37:24;;;;;;;0.50;0.40;;;20.80;99.90;;;;;;5036149;28;20487;-83
2023/06/07 11:39:51;;;;;;;0.70;0.70;;;20.90;99.90;;;;;;5036522;28;20457;-83
2023/06/07 11:42:17;;;;;;;0.50;0.30;;;20.90;99.90;;;;;;5036806;28;20438;-83
2023/06/07 11:44:45;;;;;;;0.50;0.40;;;20.90;99.90;;;;;;5037165;28;20521;-83
2023/06/07 11:47:12;;;;;;;0.50;0.40;;;21.10;99.90;;;;;;5036739;28;20470;-83
2023/06/07 11:49:41;;;;;;;3.13;2.30;;;21.30;99.90;;;;;;5036701;28;20438;-83
2023/06/07 11:52:09;;;;;;;0.50;0.40;;;21.60;99.90;;;;;;5037449;28;20481;-83
2023/06/07 11:54:41;;;;;;;0.87;0.87;;;22.00;99.90;;;;;;5036723;28;20442;-81
2023/06/07 11:57:09;;;;;;;1.07;0.73;;;22.30;99.90;;;;;;5036586;28;20539;-83
2023/06/07 11:59:36;;;;;;;0.50;0.30;;;22.40;99.90;;;;;;5037071;28;20925;-84
2023/06/07 12:02:04;;;;;;;0.50;0.37;;;22.60;99.90;;;;;;5029033;28;20444;-83
2023/06/07 12:04:31;;;;;;;0.80;0.80;;;23.00;99.90;;;;;;5036322;28;20442;-83
2023/06/07 12:07:17;;;;;;;0.90;0.60;;;23.30;99.90;;;;;;5036079;28;20479;-83
2023/06/07 12:09:43;;;;;;;0.67;0.60;;;23.60;99.90;;;;;;5038612;28;20441;-83
2023/06/07 12:12:15;;;;;;;0.50;0.30;;;24.50;99.90;;;;;;5040577;28;21055;-82
2023/06/07 12:14:42;;;;;;;5.13;1.60;;;25.60;99.90;;;;;;5040259;28;20478;-82
2023/06/07 12:17:10;;;;;;;0.80;0.70;;;26.90;99.90;;;;;;5040240;28;20969;-83
2023/06/07 12:19:37;;;;;;;1.10;1.00;;;27.70;99.90;;;;;;5041049;28;20472;-84
2023/06/07 12:22:07;;;;;;;1.80;1.70;;;28.20;99.90;;;;;;5041331;28;20532;-83
2023/06/07 12:24:39;;;;;;;1.07;1.07;;;28.30;99.90;;;;;;5040911;28;20529;-84
2023/06/07 12:27:06;;;;;;;1.73;1.17;;;28.30;99.90;;;;;;5033115;28;20523;-84
2023/06/07 12:29:33;;;;;;;0.50;0.40;;;28.80;99.90;;;;;;5040006;28;20449;-84
2023/06/07 12:32:01;;;;;;;0.80;0.60;;;29.40;99.90;;;;;;5042355;28;21054;-83
2023/06/07 12:34:30;;;;;;;1.33;0.50;;;29.90;99.90;;;;;;5040642;28;20447;-84
2023/06/07 12:36:56;;;;;;;0.50;0.30;;;29.60;98.80;;;;;;5040565;28;20466;-83
2023/06/07 12:39:30;;;;;;;3.17;2.97;;;29.10;98.20;;;;;;5040387;28;20445;-83
2023/06/07 12:41:57;;;;;;;2.20;1.53;;;28.30;97.50;;;;;;5040114;28;20450;-83
2023/06/07 12:44:24;;;;;;;0.60;0.40;;;27.50;99.90;;;;;;5040120;28;20449;-83
2023/06/07 12:46:51;;;;;;;1.10;0.60;;;26.70;99.90;;;;;;5040372;28;20470;-82
2023/06/07 12:49:18;;;;;;;2.13;2.00;;;26.40;99.90;;;;;;5040851;28;20453;-84
2023/06/07 12:51:45;;;;;;;0.80;0.80;;;26.60;99.90;;;;;;5040115;28;20556;-82
2023/06/07 12:54:12;;;;;;;0.60;0.50;;;26.60;99.90;;;;;;5040756;28;20454;-83